sensor_id;sensor_type;location;lat;lon;timestamp;P1;durP1;ratioP1;P2;durP2;ratioP2
24483;SDS011;12643;51.620;7.548;2023-04-24T00:02:20;0.90;;;0.40;;
24483;SDS011;12643;51.620;7.548;2023-04-24T00:04:49;2.05;;;0.40;;
24483;SDS011;12643;51.620;7.548;2023-04-24T00:07:17;0.68;;;0.45;;
24483;SDS011;12643;51.620;7.548;2023-04-24T00:09:47;3.47;;;0.60;;
24483;SDS011;12643;51.620;7.548;2023-04-24T00:12:15;1.20;;;0.50;;
24483;SDS011;12643;51.620;7.548;2023-04-24T00:14:43;1.85;;;0.70;;
24483;SDS011;12643;51.620;7.548;2023-04-24T00:17:12;1.65;;;0.93;;
24483;SDS011;12643;51.620;7.548;2023-04-24T00:19:40;1.40;;;0.75;;
24483;SDS011;12643;51.620;7.548;2023-04-24T00:22:08;3.97;;;1.25;;
24483;SDS011;12643;51.620;7.548;2023-04-24T00:24:38;2.88;;;0.93;;
24483;SDS011;12643;51.620;7.548;2023-04-24T00:27:08;1.20;;;0.60;;
24483;SDS011;12643;51.620;7.548;2023-04-24T00:29:36;1.38;;;0.38;;
24483;SDS011;12643;51.620;7.548;2023-04-24T00:32:04;0.68;;;0.43;;
24483;SDS011;12643;51.620;7.548;2023-04-24T00:34:31;0.73;;;0.50;;
24483;SDS011;12643;51.620;7.548;2023-04-24T00:36:59;1.05;;;0.60;;
24483;SDS011;12643;51.620;7.548;2023-04-24T00:39:27;1.88;;;0.80;;
24483;SDS011;12643;51.620;7.548;2023-04-24T00:41:56;0.90;;;0.75;;
24483;SDS011;12643;51.620;7.548;2023-04-24T00:44:26;1.70;;;0.63;;
24483;SDS011;12643;51.620;7.548;2023-04-24T00:46:54;1.67;;;0.70;;
24483;SDS011;12643;51.620;7.548;2023-04-24T00:49:23;2.05;;;1.25;;
24483;SDS011;12643;51.620;7.548;2023-04-24T00:51:51;0.93;;;0.82;;
24483;SDS011;12643;51.620;7.548;2023-04-24T00:54:19;6.50;;;1.02;;
24483;SDS011;12643;51.620;7.548;2023-04-24T00:56:47;3.75;;;1.02;;
24483;SDS011;12643;51.620;7.548;2023-04-24T00:59:16;2.33;;;0.90;;
24483;SDS011;12643;51.620;7.548;2023-04-24T01:01:46;2.83;;;0.95;;
24483;SDS011;12643;51.620;7.548;2023-04-24T01:04:14;3.10;;;1.08;;
24483;SDS011;12643;51.620;7.548;2023-04-24T01:06:43;1.45;;;0.98;;
24483;SDS011;12643;51.620;7.548;2023-04-24T01:09:11;1.10;;;1.00;;
24483;SDS011;12643;51.620;7.548;2023-04-24T01:11:40;1.45;;;1.20;;
24483;SDS011;12643;51.620;7.548;2023-04-24T01:14:09;0.80;;;0.80;;
24483;SDS011;12643;51.620;7.548;2023-04-24T01:16:38;1.10;;;1.00;;
24483;SDS011;12643;51.620;7.548;2023-04-24T01:19:08;1.20;;;1.00;;
24483;SDS011;12643;51.620;7.548;2023-04-24T01:21:38;3.60;;;1.20;;
24483;SDS011;12643;51.620;7.548;2023-04-24T01:24:08;2.78;;;1.15;;
24483;SDS011;12643;51.620;7.548;2023-04-24T01:26:35;1.27;;;0.90;;
24483;SDS011;12643;51.620;7.548;2023-04-24T01:29:03;3.03;;;0.98;;
24483;SDS011;12643;51.620;7.548;2023-04-24T01:31:31;1.65;;;1.42;;
24483;SDS011;12643;51.620;7.548;2023-04-24T01:34:00;0.90;;;0.90;;
24483;SDS011;12643;51.620;7.548;2023-04-24T01:36:28;4.88;;;1.60;;
24483;SDS011;12643;51.620;7.548;2023-04-24T01:38:58;1.50;;;1.40;;
24483;SDS011;12643;51.620;7.548;2023-04-24T01:41:30;3.03;;;1.57;;
24483;SDS011;12643;51.620;7.548;2023-04-24T01:43:59;4.07;;;1.35;;
24483;SDS011;12643;51.620;7.548;2023-04-24T01:46:27;3.05;;;1.38;;
24483;SDS011;12643;51.620;7.548;2023-04-24T01:48:57;1.55;;;1.25;;
24483;SDS011;12643;51.620;7.548;2023-04-24T01:51:26;3.67;;;1.30;;
24483;SDS011;12643;51.620;7.548;2023-04-24T01:53:54;3.00;;;1.50;;
24483;SDS011;12643;51.620;7.548;2023-04-24T01:56:22;2.78;;;1.23;;
24483;SDS011;12643;51.620;7.548;2023-04-24T01:58:52;2.55;;;1.33;;
24483;SDS011;12643;51.620;7.548;2023-04-24T02:01:22;2.33;;;1.63;;
24483;SDS011;12643;51.620;7.548;2023-04-24T02:03:51;3.58;;;1.33;;
24483;SDS011;12643;51.620;7.548;2023-04-24T02:06:18;3.85;;;1.50;;
24483;SDS011;12643;51.620;7.548;2023-04-24T02:08:47;4.40;;;1.67;;
24483;SDS011;12643;51.620;7.548;2023-04-24T02:11:15;5.35;;;1.65;;
24483;SDS011;12643;51.620;7.548;2023-04-24T02:13:44;3.58;;;1.75;;
24483;SDS011;12643;51.620;7.548;2023-04-24T02:16:13;6.68;;;1.90;;
24483;SDS011;12643;51.620;7.548;2023-04-24T02:18:41;2.97;;;2.22;;
24483;SDS011;12643;51.620;7.548;2023-04-24T02:21:10;2.67;;;2.03;;
24483;SDS011;12643;51.620;7.548;2023-04-24T02:23:38;6.13;;;2.80;;
24483;SDS011;12643;51.620;7.548;2023-04-24T02:26:06;4.00;;;2.50;;
24483;SDS011;12643;51.620;7.548;2023-04-24T02:28:34;5.57;;;2.60;;
24483;SDS011;12643;51.620;7.548;2023-04-24T02:31:02;3.55;;;2.17;;
24483;SDS011;12643;51.620;7.548;2023-04-24T02:33:32;3.53;;;2.30;;
24483;SDS011;12643;51.620;7.548;2023-04-24T02:36:00;3.50;;;1.80;;
24483;SDS011;12643;51.620;7.548;2023-04-24T02:38:29;2.45;;;2.22;;
24483;SDS011;12643;51.620;7.548;2023-04-24T02:40:58;2.83;;;2.00;;
24483;SDS011;12643;51.620;7.548;2023-04-24T02:43:26;2.38;;;2.10;;
24483;SDS011;12643;51.620;7.548;2023-04-24T02:45:54;4.32;;;2.17;;
24483;SDS011;12643;51.620;7.548;2023-04-24T02:48:22;2.75;;;2.38;;
24483;SDS011;12643;51.620;7.548;2023-04-24T02:50:52;6.20;;;3.22;;
24483;SDS011;12643;51.620;7.548;2023-04-24T02:53:19;5.13;;;2.83;;
24483;SDS011;12643;51.620;7.548;2023-04-24T02:55:48;5.78;;;3.65;;
24483;SDS011;12643;51.620;7.548;2023-04-24T02:58:17;9.65;;;3.88;;
24483;SDS011;12643;51.620;7.548;2023-04-24T03:00:46;6.03;;;4.50;;
24483;SDS011;12643;51.620;7.548;2023-04-24T03:03:15;7.43;;;5.05;;
24483;SDS011;12643;51.620;7.548;2023-04-24T03:05:43;9.65;;;5.05;;
24483;SDS011;12643;51.620;7.548;2023-04-24T03:08:12;7.57;;;4.95;;
24483;SDS011;12643;51.620;7.548;2023-04-24T03:10:42;9.55;;;5.55;;
24483;SDS011;12643;51.620;7.548;2023-04-24T03:13:10;8.90;;;6.30;;
24483;SDS011;12643;51.620;7.548;2023-04-24T03:15:38;9.88;;;5.70;;
24483;SDS011;12643;51.620;7.548;2023-04-24T03:18:06;7.72;;;5.70;;
24483;SDS011;12643;51.620;7.548;2023-04-24T03:20:34;7.72;;;6.13;;
24483;SDS011;12643;51.620;7.548;2023-04-24T03:23:02;8.55;;;5.80;;
24483;SDS011;12643;51.620;7.548;2023-04-24T03:25:31;7.90;;;5.55;;
24483;SDS011;12643;51.620;7.548;2023-04-24T03:27:59;10.38;;;7.32;;
24483;SDS011;12643;51.620;7.548;2023-04-24T03:30:27;13.82;;;7.13;;
24483;SDS011;12643;51.620;7.548;2023-04-24T03:32:55;9.77;;;7.13;;
24483;SDS011;12643;51.620;7.548;2023-04-24T03:35:23;11.88;;;7.00;;
24483;SDS011;12643;51.620;7.548;2023-04-24T03:37:51;12.63;;;7.95;;
24483;SDS011;12643;51.620;7.548;2023-04-24T03:40:19;12.65;;;7.00;;
24483;SDS011;12643;51.620;7.548;2023-04-24T03:42:48;10.75;;;7.38;;
24483;SDS011;12643;51.620;7.548;2023-04-24T03:45:16;12.15;;;7.07;;
24483;SDS011;12643;51.620;7.548;2023-04-24T03:47:44;10.77;;;7.60;;
24483;SDS011;12643;51.620;7.548;2023-04-24T03:50:12;15.65;;;8.02;;
24483;SDS011;12643;51.620;7.548;2023-04-24T03:52:40;10.70;;;8.18;;
24483;SDS011;12643;51.620;7.548;2023-04-24T03:55:08;11.80;;;7.93;;
24483;SDS011;12643;51.620;7.548;2023-04-24T03:57:38;10.57;;;7.75;;
24483;SDS011;12643;51.620;7.548;2023-04-24T04:00:08;11.52;;;8.00;;
24483;SDS011;12643;51.620;7.548;2023-04-24T04:05:05;14.20;;;8.25;;
24483;SDS011;12643;51.620;7.548;2023-04-24T04:07:33;14.35;;;8.38;;
24483;SDS011;12643;51.620;7.548;2023-04-24T04:10:01;11.50;;;8.45;;
24483;SDS011;12643;51.620;7.548;2023-04-24T04:12:29;15.43;;;9.27;;
24483;SDS011;12643;51.620;7.548;2023-04-24T04:14:58;14.23;;;8.95;;
24483;SDS011;12643;51.620;7.548;2023-04-24T04:17:27;11.93;;;8.57;;
24483;SDS011;12643;51.620;7.548;2023-04-24T04:19:55;14.75;;;8.77;;
24483;SDS011;12643;51.620;7.548;2023-04-24T04:22:23;15.10;;;9.40;;
24483;SDS011;12643;51.620;7.548;2023-04-24T04:24:52;13.38;;;9.50;;
24483;SDS011;12643;51.620;7.548;2023-04-24T04:27:20;18.95;;;10.70;;
24483;SDS011;12643;51.620;7.548;2023-04-24T04:29:48;15.52;;;10.50;;
24483;SDS011;12643;51.620;7.548;2023-04-24T04:32:16;18.95;;;11.00;;
24483;SDS011;12643;51.620;7.548;2023-04-24T04:34:46;16.15;;;10.90;;
24483;SDS011;12643;51.620;7.548;2023-04-24T04:37:14;16.05;;;10.82;;
24483;SDS011;12643;51.620;7.548;2023-04-24T04:39:43;16.90;;;9.82;;
24483;SDS011;12643;51.620;7.548;2023-04-24T04:42:10;15.52;;;10.45;;
24483;SDS011;12643;51.620;7.548;2023-04-24T04:44:39;15.95;;;10.55;;
24483;SDS011;12643;51.620;7.548;2023-04-24T04:47:07;20.10;;;11.32;;
24483;SDS011;12643;51.620;7.548;2023-04-24T04:49:36;15.57;;;10.13;;
24483;SDS011;12643;51.620;7.548;2023-04-24T04:52:06;21.40;;;11.38;;
24483;SDS011;12643;51.620;7.548;2023-04-24T04:54:34;14.60;;;9.57;;
24483;SDS011;12643;51.620;7.548;2023-04-24T04:57:02;17.92;;;10.57;;
24483;SDS011;12643;51.620;7.548;2023-04-24T04:59:31;19.42;;;11.10;;
24483;SDS011;12643;51.620;7.548;2023-04-24T05:01:59;17.23;;;10.85;;
24483;SDS011;12643;51.620;7.548;2023-04-24T05:04:27;19.05;;;11.23;;
24483;SDS011;12643;51.620;7.548;2023-04-24T05:06:56;17.25;;;12.45;;
24483;SDS011;12643;51.620;7.548;2023-04-24T05:09:25;16.92;;;10.85;;
24483;SDS011;12643;51.620;7.548;2023-04-24T05:11:54;16.98;;;11.43;;
24483;SDS011;12643;51.620;7.548;2023-04-24T05:14:24;15.80;;;11.52;;
24483;SDS011;12643;51.620;7.548;2023-04-24T05:16:52;16.15;;;10.98;;
24483;SDS011;12643;51.620;7.548;2023-04-24T05:19:20;16.50;;;11.73;;
24483;SDS011;12643;51.620;7.548;2023-04-24T05:21:47;16.70;;;10.68;;
24483;SDS011;12643;51.620;7.548;2023-04-24T05:24:15;17.13;;;10.73;;
24483;SDS011;12643;51.620;7.548;2023-04-24T05:26:45;21.25;;;12.00;;
24483;SDS011;12643;51.620;7.548;2023-04-24T05:29:16;16.33;;;10.95;;
24483;SDS011;12643;51.620;7.548;2023-04-24T05:31:44;16.27;;;10.40;;
24483;SDS011;12643;51.620;7.548;2023-04-24T05:34:12;15.43;;;10.63;;
24483;SDS011;12643;51.620;7.548;2023-04-24T05:36:42;16.63;;;10.63;;
24483;SDS011;12643;51.620;7.548;2023-04-24T05:39:10;13.65;;;10.32;;
24483;SDS011;12643;51.620;7.548;2023-04-24T05:41:40;11.85;;;9.32;;
24483;SDS011;12643;51.620;7.548;2023-04-24T05:44:10;13.20;;;8.95;;
24483;SDS011;12643;51.620;7.548;2023-04-24T05:46:39;16.77;;;10.15;;
24483;SDS011;12643;51.620;7.548;2023-04-24T05:49:07;15.50;;;10.55;;
24483;SDS011;12643;51.620;7.548;2023-04-24T05:51:35;15.50;;;9.27;;
24483;SDS011;12643;51.620;7.548;2023-04-24T05:54:05;12.87;;;9.27;;
24483;SDS011;12643;51.620;7.548;2023-04-24T05:56:33;15.45;;;9.05;;
24483;SDS011;12643;51.620;7.548;2023-04-24T05:59:02;10.98;;;8.35;;
24483;SDS011;12643;51.620;7.548;2023-04-24T06:01:32;11.82;;;8.27;;
24483;SDS011;12643;51.620;7.548;2023-04-24T06:04:02;9.00;;;7.60;;
24483;SDS011;12643;51.620;7.548;2023-04-24T06:06:30;13.15;;;7.70;;
24483;SDS011;12643;51.620;7.548;2023-04-24T06:08:58;10.50;;;7.88;;
24483;SDS011;12643;51.620;7.548;2023-04-24T06:11:26;9.07;;;7.43;;
24483;SDS011;12643;51.620;7.548;2023-04-24T06:13:54;9.02;;;6.78;;
24483;SDS011;12643;51.620;7.548;2023-04-24T06:16:22;12.38;;;7.05;;
24483;SDS011;12643;51.620;7.548;2023-04-24T06:18:51;14.38;;;7.47;;
24483;SDS011;12643;51.620;7.548;2023-04-24T06:21:21;16.20;;;7.15;;
24483;SDS011;12643;51.620;7.548;2023-04-24T06:23:49;12.18;;;8.18;;
24483;SDS011;12643;51.620;7.548;2023-04-24T06:26:21;11.73;;;7.97;;
24483;SDS011;12643;51.620;7.548;2023-04-24T06:28:50;13.10;;;7.10;;
24483;SDS011;12643;51.620;7.548;2023-04-24T06:31:19;11.73;;;7.93;;
24483;SDS011;12643;51.620;7.548;2023-04-24T06:33:47;10.13;;;7.82;;
24483;SDS011;12643;51.620;7.548;2023-04-24T06:36:18;10.10;;;8.05;;
24483;SDS011;12643;51.620;7.548;2023-04-24T06:38:46;13.40;;;8.63;;
24483;SDS011;12643;51.620;7.548;2023-04-24T06:41:14;12.65;;;9.20;;
24483;SDS011;12643;51.620;7.548;2023-04-24T06:43:42;11.40;;;8.00;;
24483;SDS011;12643;51.620;7.548;2023-04-24T06:46:10;14.20;;;8.65;;
24483;SDS011;12643;51.620;7.548;2023-04-24T06:48:38;13.40;;;7.53;;
24483;SDS011;12643;51.620;7.548;2023-04-24T06:51:07;13.20;;;7.07;;
24483;SDS011;12643;51.620;7.548;2023-04-24T06:53:36;12.38;;;6.47;;
24483;SDS011;12643;51.620;7.548;2023-04-24T06:56:05;11.52;;;6.85;;
24483;SDS011;12643;51.620;7.548;2023-04-24T06:58:33;9.00;;;6.13;;
24483;SDS011;12643;51.620;7.548;2023-04-24T07:01:01;7.25;;;6.15;;
24483;SDS011;12643;51.620;7.548;2023-04-24T07:03:29;9.85;;;6.10;;
24483;SDS011;12643;51.620;7.548;2023-04-24T07:05:57;7.70;;;5.95;;
24483;SDS011;12643;51.620;7.548;2023-04-24T07:08:25;20.75;;;5.90;;
24483;SDS011;12643;51.620;7.548;2023-04-24T07:10:57;5.93;;;5.00;;
24483;SDS011;12643;51.620;7.548;2023-04-24T07:13:26;7.35;;;5.60;;
24483;SDS011;12643;51.620;7.548;2023-04-24T07:15:54;5.05;;;4.43;;
24483;SDS011;12643;51.620;7.548;2023-04-24T07:18:22;6.88;;;4.72;;
24483;SDS011;12643;51.620;7.548;2023-04-24T07:20:51;5.70;;;4.70;;
24483;SDS011;12643;51.620;7.548;2023-04-24T07:23:20;5.85;;;4.63;;
24483;SDS011;12643;51.620;7.548;2023-04-24T07:25:48;5.63;;;4.22;;
24483;SDS011;12643;51.620;7.548;2023-04-24T07:28:18;7.32;;;4.57;;
24483;SDS011;12643;51.620;7.548;2023-04-24T07:30:49;6.43;;;4.30;;
24483;SDS011;12643;51.620;7.548;2023-04-24T07:33:19;5.43;;;4.28;;
24483;SDS011;12643;51.620;7.548;2023-04-24T07:35:48;4.78;;;3.95;;
24483;SDS011;12643;51.620;7.548;2023-04-24T07:38:16;6.85;;;4.18;;
24483;SDS011;12643;51.620;7.548;2023-04-24T07:40:47;7.80;;;4.70;;
24483;SDS011;12643;51.620;7.548;2023-04-24T07:43:17;5.10;;;4.35;;
24483;SDS011;12643;51.620;7.548;2023-04-24T07:45:46;5.60;;;4.70;;
24483;SDS011;12643;51.620;7.548;2023-04-24T07:48:14;5.28;;;4.25;;
24483;SDS011;12643;51.620;7.548;2023-04-24T07:50:46;6.63;;;4.45;;
24483;SDS011;12643;51.620;7.548;2023-04-24T07:53:14;4.03;;;3.70;;
24483;SDS011;12643;51.620;7.548;2023-04-24T07:55:42;4.82;;;3.53;;
24483;SDS011;12643;51.620;7.548;2023-04-24T07:58:11;3.95;;;3.42;;
24483;SDS011;12643;51.620;7.548;2023-04-24T08:00:40;4.90;;;3.17;;
24483;SDS011;12643;51.620;7.548;2023-04-24T08:03:10;2.55;;;2.35;;
24483;SDS011;12643;51.620;7.548;2023-04-24T08:05:38;2.92;;;2.60;;
24483;SDS011;12643;51.620;7.548;2023-04-24T08:08:09;3.08;;;2.13;;
24483;SDS011;12643;51.620;7.548;2023-04-24T08:10:37;3.83;;;2.25;;
24483;SDS011;12643;51.620;7.548;2023-04-24T08:13:05;3.42;;;2.08;;
24483;SDS011;12643;51.620;7.548;2023-04-24T08:15:33;3.33;;;2.17;;
24483;SDS011;12643;51.620;7.548;2023-04-24T08:18:02;3.38;;;2.30;;
24483;SDS011;12643;51.620;7.548;2023-04-24T08:20:30;3.58;;;2.15;;
24483;SDS011;12643;51.620;7.548;2023-04-24T08:22:58;4.03;;;2.45;;
24483;SDS011;12643;51.620;7.548;2023-04-24T08:25:26;2.75;;;2.15;;
24483;SDS011;12643;51.620;7.548;2023-04-24T08:27:54;3.72;;;2.47;;
24483;SDS011;12643;51.620;7.548;2023-04-24T08:30:22;4.15;;;2.20;;
24483;SDS011;12643;51.620;7.548;2023-04-24T08:32:50;3.25;;;2.13;;
24483;SDS011;12643;51.620;7.548;2023-04-24T08:35:19;2.75;;;1.33;;
24483;SDS011;12643;51.620;7.548;2023-04-24T08:37:56;2.80;;;1.37;;
24483;SDS011;12643;51.620;7.548;2023-04-24T08:41:01;1.70;;;1.10;;
24483;SDS011;12643;51.620;7.548;2023-04-24T08:43:46;2.55;;;1.10;;
24483;SDS011;12643;51.620;7.548;2023-04-24T08:46:58;2.33;;;1.10;;
24483;SDS011;12643;51.620;7.548;2023-04-24T08:50:14;0.95;;;0.82;;
24483;SDS011;12643;51.620;7.548;2023-04-24T08:56:42;0.70;;;0.63;;
24483;SDS011;12643;51.620;7.548;2023-04-24T08:59:11;0.95;;;0.70;;
24483;SDS011;12643;51.620;7.548;2023-04-24T09:01:41;0.85;;;0.60;;
24483;SDS011;12643;51.620;7.548;2023-04-24T09:04:10;0.75;;;0.60;;
24483;SDS011;12643;51.620;7.548;2023-04-24T09:06:40;0.50;;;0.50;;
24483;SDS011;12643;51.620;7.548;2023-04-24T09:09:08;1.20;;;0.70;;
24483;SDS011;12643;51.620;7.548;2023-04-24T09:11:39;3.47;;;0.77;;
24483;SDS011;12643;51.620;7.548;2023-04-24T09:14:08;1.35;;;0.90;;
24483;SDS011;12643;51.620;7.548;2023-04-24T09:16:37;0.60;;;0.57;;
24483;SDS011;12643;51.620;7.548;2023-04-24T09:19:07;1.65;;;0.75;;
24483;SDS011;12643;51.620;7.548;2023-04-24T09:21:35;2.05;;;0.90;;
24483;SDS011;12643;51.620;7.548;2023-04-24T09:24:04;1.35;;;1.08;;
24483;SDS011;12643;51.620;7.548;2023-04-24T09:26:35;3.13;;;1.10;;
24483;SDS011;12643;51.620;7.548;2023-04-24T09:29:04;1.38;;;0.70;;
24483;SDS011;12643;51.620;7.548;2023-04-24T09:31:32;1.10;;;0.95;;
24483;SDS011;12643;51.620;7.548;2023-04-24T09:34:00;3.50;;;1.17;;
24483;SDS011;12643;51.620;7.548;2023-04-24T09:36:31;1.40;;;1.30;;
24483;SDS011;12643;51.620;7.548;2023-04-24T09:39:09;1.42;;;1.33;;
24483;SDS011;12643;51.620;7.548;2023-04-24T09:41:45;1.25;;;1.10;;
24483;SDS011;12643;51.620;7.548;2023-04-24T09:44:14;1.95;;;1.75;;
24483;SDS011;12643;51.620;7.548;2023-04-24T09:46:45;2.55;;;1.75;;
24483;SDS011;12643;51.620;7.548;2023-04-24T09:49:21;3.80;;;2.50;;
24483;SDS011;12643;51.620;7.548;2023-04-24T09:51:51;3.78;;;2.30;;
24483;SDS011;12643;51.620;7.548;2023-04-24T09:54:28;3.53;;;2.47;;
24483;SDS011;12643;51.620;7.548;2023-04-24T09:57:01;4.85;;;2.60;;
24483;SDS011;12643;51.620;7.548;2023-04-24T09:59:29;3.57;;;2.50;;
24483;SDS011;12643;51.620;7.548;2023-04-24T10:01:59;3.47;;;3.05;;
24483;SDS011;12643;51.620;7.548;2023-04-24T10:04:28;3.42;;;2.75;;
24483;SDS011;12643;51.620;7.548;2023-04-24T10:06:57;3.00;;;2.70;;
24483;SDS011;12643;51.620;7.548;2023-04-24T10:09:26;6.30;;;3.70;;
24483;SDS011;12643;51.620;7.548;2023-04-24T10:11:54;3.78;;;3.47;;
24483;SDS011;12643;51.620;7.548;2023-04-24T10:14:24;4.00;;;3.67;;
24483;SDS011;12643;51.620;7.548;2023-04-24T10:16:54;7.32;;;3.85;;
24483;SDS011;12643;51.620;7.548;2023-04-24T10:19:25;3.50;;;2.78;;
24483;SDS011;12643;51.620;7.548;2023-04-24T10:21:53;3.67;;;3.25;;
24483;SDS011;12643;51.620;7.548;2023-04-24T10:24:22;6.68;;;3.67;;
24483;SDS011;12643;51.620;7.548;2023-04-24T10:26:50;6.22;;;3.83;;
24483;SDS011;12643;51.620;7.548;2023-04-24T10:29:19;6.32;;;5.13;;
24483;SDS011;12643;51.620;7.548;2023-04-24T10:31:49;7.72;;;5.38;;
24483;SDS011;12643;51.620;7.548;2023-04-24T10:34:17;6.78;;;5.20;;
24483;SDS011;12643;51.620;7.548;2023-04-24T10:36:49;5.45;;;3.83;;
24483;SDS011;12643;51.620;7.548;2023-04-24T10:39:18;8.13;;;4.47;;
24483;SDS011;12643;51.620;7.548;2023-04-24T10:41:48;4.70;;;4.05;;
24483;SDS011;12643;51.620;7.548;2023-04-24T10:44:16;5.22;;;3.90;;
24483;SDS011;12643;51.620;7.548;2023-04-24T10:46:45;7.88;;;4.75;;
24483;SDS011;12643;51.620;7.548;2023-04-24T10:49:27;7.85;;;4.20;;
24483;SDS011;12643;51.620;7.548;2023-04-24T10:51:59;5.25;;;3.65;;
24483;SDS011;12643;51.620;7.548;2023-04-24T10:54:29;6.63;;;3.83;;
24483;SDS011;12643;51.620;7.548;2023-04-24T11:00:12;7.55;;;4.20;;
24483;SDS011;12643;51.620;7.548;2023-04-24T11:02:48;9.27;;;5.63;;
24483;SDS011;12643;51.620;7.548;2023-04-24T11:05:48;11.18;;;6.65;;
24483;SDS011;12643;51.620;7.548;2023-04-24T11:08:28;14.20;;;8.82;;
24483;SDS011;12643;51.620;7.548;2023-04-24T11:10:58;9.75;;;6.22;;
24483;SDS011;12643;51.620;7.548;2023-04-24T11:16:34;7.13;;;5.72;;
24483;SDS011;12643;51.620;7.548;2023-04-24T11:19:21;5.70;;;4.93;;
24483;SDS011;12643;51.620;7.548;2023-04-24T11:24:50;8.23;;;5.50;;
24483;SDS011;12643;51.620;7.548;2023-04-24T11:27:21;10.80;;;5.82;;
24483;SDS011;12643;51.620;7.548;2023-04-24T11:29:59;12.07;;;6.72;;
24483;SDS011;12643;51.620;7.548;2023-04-24T11:32:34;11.80;;;6.73;;
24483;SDS011;12643;51.620;7.548;2023-04-24T11:35:05;13.10;;;6.70;;
24483;SDS011;12643;51.620;7.548;2023-04-24T11:37:36;17.48;;;6.70;;
24483;SDS011;12643;51.620;7.548;2023-04-24T11:40:08;15.95;;;7.88;;
24483;SDS011;12643;51.620;7.548;2023-04-24T11:42:38;12.98;;;7.18;;
24483;SDS011;12643;51.620;7.548;2023-04-24T11:45:08;10.60;;;6.43;;
24483;SDS011;12643;51.620;7.548;2023-04-24T11:47:37;10.48;;;5.85;;
24483;SDS011;12643;51.620;7.548;2023-04-24T11:50:07;13.60;;;6.45;;
24483;SDS011;12643;51.620;7.548;2023-04-24T11:52:38;14.35;;;7.50;;
24483;SDS011;12643;51.620;7.548;2023-04-24T11:55:07;14.85;;;7.38;;
24483;SDS011;12643;51.620;7.548;2023-04-24T11:57:50;15.25;;;6.75;;
24483;SDS011;12643;51.620;7.548;2023-04-24T12:00:22;15.43;;;8.13;;
24483;SDS011;12643;51.620;7.548;2023-04-24T12:03:02;19.25;;;6.97;;
24483;SDS011;12643;51.620;7.548;2023-04-24T12:05:33;15.45;;;7.35;;
24483;SDS011;12643;51.620;7.548;2023-04-24T12:08:04;20.38;;;7.55;;
24483;SDS011;12643;51.620;7.548;2023-04-24T12:13:01;16.65;;;7.53;;
24483;SDS011;12643;51.620;7.548;2023-04-24T12:15:30;14.98;;;6.82;;
24483;SDS011;12643;51.620;7.548;2023-04-24T12:17:59;20.83;;;7.68;;
24483;SDS011;12643;51.620;7.548;2023-04-24T12:20:28;19.90;;;7.93;;
24483;SDS011;12643;51.620;7.548;2023-04-24T12:22:58;15.90;;;7.15;;
24483;SDS011;12643;51.620;7.548;2023-04-24T12:25:32;25.13;;;7.80;;
24483;SDS011;12643;51.620;7.548;2023-04-24T12:30:39;15.48;;;7.70;;
24483;SDS011;12643;51.620;7.548;2023-04-24T12:33:11;18.10;;;7.35;;
24483;SDS011;12643;51.620;7.548;2023-04-24T12:35:40;18.10;;;7.75;;
24483;SDS011;12643;51.620;7.548;2023-04-24T12:38:09;18.70;;;7.20;;
24483;SDS011;12643;51.620;7.548;2023-04-24T12:40:40;21.85;;;7.65;;
24483;SDS011;12643;51.620;7.548;2023-04-24T12:43:13;21.17;;;7.60;;
24483;SDS011;12643;51.620;7.548;2023-04-24T12:45:42;19.63;;;6.70;;
24483;SDS011;12643;51.620;7.548;2023-04-24T12:48:10;15.80;;;6.55;;
24483;SDS011;12643;51.620;7.548;2023-04-24T12:50:41;11.77;;;5.63;;
24483;SDS011;12643;51.620;7.548;2023-04-24T12:53:09;9.77;;;4.03;;
24483;SDS011;12643;51.620;7.548;2023-04-24T12:55:37;15.82;;;4.68;;
24483;SDS011;12643;51.620;7.548;2023-04-24T12:58:07;14.20;;;4.32;;
24483;SDS011;12643;51.620;7.548;2023-04-24T13:00:35;13.57;;;5.43;;
24483;SDS011;12643;51.620;7.548;2023-04-24T13:03:04;7.95;;;4.30;;
24483;SDS011;12643;51.620;7.548;2023-04-24T13:05:32;10.63;;;4.05;;
24483;SDS011;12643;51.620;7.548;2023-04-24T13:08:00;12.88;;;4.65;;
24483;SDS011;12643;51.620;7.548;2023-04-24T13:10:29;11.10;;;4.20;;
24483;SDS011;12643;51.620;7.548;2023-04-24T13:12:59;6.35;;;3.63;;
24483;SDS011;12643;51.620;7.548;2023-04-24T13:15:30;8.68;;;3.20;;
24483;SDS011;12643;51.620;7.548;2023-04-24T13:17:58;7.45;;;3.72;;
24483;SDS011;12643;51.620;7.548;2023-04-24T13:20:27;8.38;;;3.40;;
24483;SDS011;12643;51.620;7.548;2023-04-24T13:22:55;9.40;;;3.50;;
24483;SDS011;12643;51.620;7.548;2023-04-24T13:25:23;11.25;;;3.20;;
24483;SDS011;12643;51.620;7.548;2023-04-24T13:27:52;5.90;;;3.38;;
24483;SDS011;12643;51.620;7.548;2023-04-24T13:30:20;7.28;;;2.83;;
24483;SDS011;12643;51.620;7.548;2023-04-24T13:32:50;6.97;;;3.15;;
24483;SDS011;12643;51.620;7.548;2023-04-24T13:35:19;6.70;;;3.00;;
24483;SDS011;12643;51.620;7.548;2023-04-24T13:37:47;8.10;;;3.03;;
24483;SDS011;12643;51.620;7.548;2023-04-24T13:40:15;5.88;;;3.22;;
24483;SDS011;12643;51.620;7.548;2023-04-24T13:42:43;8.75;;;3.45;;
24483;SDS011;12643;51.620;7.548;2023-04-24T13:45:11;6.38;;;3.92;;
24483;SDS011;12643;51.620;7.548;2023-04-24T13:47:39;6.88;;;3.45;;
24483;SDS011;12643;51.620;7.548;2023-04-24T13:50:10;10.57;;;3.50;;
24483;SDS011;12643;51.620;7.548;2023-04-24T13:52:39;7.47;;;2.90;;
24483;SDS011;12643;51.620;7.548;2023-04-24T13:55:10;7.03;;;2.65;;
24483;SDS011;12643;51.620;7.548;2023-04-24T13:57:39;9.50;;;2.47;;
24483;SDS011;12643;51.620;7.548;2023-04-24T14:00:08;6.10;;;2.30;;
24483;SDS011;12643;51.620;7.548;2023-04-24T14:02:37;6.70;;;2.83;;
24483;SDS011;12643;51.620;7.548;2023-04-24T14:05:05;5.32;;;2.70;;
24483;SDS011;12643;51.620;7.548;2023-04-24T14:07:38;6.60;;;3.15;;
24483;SDS011;12643;51.620;7.548;2023-04-24T14:10:07;6.47;;;2.75;;
24483;SDS011;12643;51.620;7.548;2023-04-24T14:12:36;4.93;;;2.63;;
24483;SDS011;12643;51.620;7.548;2023-04-24T14:15:04;6.72;;;3.20;;
24483;SDS011;12643;51.620;7.548;2023-04-24T14:17:36;5.68;;;2.25;;
24483;SDS011;12643;51.620;7.548;2023-04-24T14:20:05;3.97;;;2.63;;
24483;SDS011;12643;51.620;7.548;2023-04-24T14:22:34;3.85;;;2.70;;
24483;SDS011;12643;51.620;7.548;2023-04-24T14:25:05;3.92;;;2.72;;
24483;SDS011;12643;51.620;7.548;2023-04-24T14:27:34;4.63;;;2.60;;
24483;SDS011;12643;51.620;7.548;2023-04-24T14:30:02;5.75;;;3.30;;
24483;SDS011;12643;51.620;7.548;2023-04-24T14:32:32;7.10;;;3.25;;
24483;SDS011;12643;51.620;7.548;2023-04-24T14:35:01;5.47;;;3.33;;
24483;SDS011;12643;51.620;7.548;2023-04-24T14:37:29;7.55;;;2.95;;
24483;SDS011;12643;51.620;7.548;2023-04-24T14:40:00;5.38;;;2.90;;
24483;SDS011;12643;51.620;7.548;2023-04-24T14:42:34;9.20;;;3.15;;
24483;SDS011;12643;51.620;7.548;2023-04-24T14:47:35;5.78;;;3.75;;
24483;SDS011;12643;51.620;7.548;2023-04-24T14:50:07;8.68;;;3.67;;
24483;SDS011;12643;51.620;7.548;2023-04-24T14:52:35;6.75;;;3.85;;
24483;SDS011;12643;51.620;7.548;2023-04-24T14:55:04;6.28;;;3.13;;
24483;SDS011;12643;51.620;7.548;2023-04-24T14:57:35;5.68;;;3.50;;
24483;SDS011;12643;51.620;7.548;2023-04-24T15:00:03;6.85;;;3.42;;
24483;SDS011;12643;51.620;7.548;2023-04-24T15:02:43;6.35;;;3.05;;
24483;SDS011;12643;51.620;7.548;2023-04-24T15:05:11;7.85;;;3.60;;
24483;SDS011;12643;51.620;7.548;2023-04-24T15:07:39;6.93;;;4.07;;
24483;SDS011;12643;51.620;7.548;2023-04-24T15:10:08;4.95;;;3.58;;
24483;SDS011;12643;51.620;7.548;2023-04-24T15:12:39;5.65;;;3.63;;
24483;SDS011;12643;51.620;7.548;2023-04-24T15:15:07;8.07;;;4.40;;
24483;SDS011;12643;51.620;7.548;2023-04-24T15:17:36;9.80;;;4.72;;
24483;SDS011;12643;51.620;7.548;2023-04-24T15:20:05;8.50;;;5.20;;
24483;SDS011;12643;51.620;7.548;2023-04-24T15:22:35;6.40;;;3.90;;